Time;durP1;ratioP1;P1;durP2;ratioP2;P2;SDS_P1;SDS_P2;PMS_P1;PMS_P2;Temp;Humidity;BMP_temperature;BMP_pressure;BME280_temperature;BME280_humidity;BME280_pressure;Samples;Min_cycle;Max_cycle;Signal;HPM_P1;HPM_P2
2022/05/02 00:00:10;;;;;;;7.83;5.63;;;11.50;99.90;;;;;;4886509;29;20193;-76
2022/05/02 00:02:37;;;;;;;6.63;5.37;;;11.50;99.90;;;;;;4885841;29;20194;-76
2022/05/02 00:05:04;;;;;;;6.70;5.67;;;11.60;99.90;;;;;;4901849;29;20696;-76
2022/05/02 00:07:29;;;;;;;7.20;5.50;;;11.60;99.90;;;;;;4901617;29;20184;-76
2022/05/02 00:09:56;;;;;;;6.10;5.50;;;11.70;99.90;;;;;;4901714;29;20206;-76
2022/05/02 00:12:21;;;;;;;6.10;5.50;;;11.60;99.90;;;;;;4901570;29;20183;-76
2022/05/02 00:14:47;;;;;;;6.20;5.60;;;11.70;99.90;;;;;;4885964;29;20619;-76
2022/05/02 00:17:13;;;;;;;7.03;5.53;;;11.70;99.90;;;;;;4885656;29;20183;-76
2022/05/02 00:19:38;;;;;;;8.57;5.47;;;11.70;99.90;;;;;;4870650;29;20234;-76
2022/05/02 00:22:04;;;;;;;9.17;5.63;;;11.60;99.90;;;;;;4885806;29;20203;-76
2022/05/02 00:24:30;;;;;;;7.53;5.47;;;11.60;99.90;;;;;;4901226;29;20198;-76
2022/05/02 00:26:56;;;;;;;6.93;5.73;;;11.60;99.90;;;;;;4901409;29;20185;-76
2022/05/02 00:29:22;;;;;;;7.40;5.60;;;11.60;99.90;;;;;;4901268;29;20196;-76
2022/05/02 00:31:47;;;;;;;8.10;5.90;;;11.50;99.90;;;;;;4885685;29;20178;-76
2022/05/02 00:34:13;;;;;;;8.23;5.80;;;11.40;99.90;;;;;;4870193;29;20252;-76
2022/05/02 00:36:39;;;;;;;7.50;5.80;;;11.40;99.90;;;;;;4901357;29;20178;-76
2022/05/02 00:39:05;;;;;;;9.50;5.80;;;11.30;99.90;;;;;;4870007;29;20582;-76
2022/05/02 00:41:31;;;;;;;7.43;5.70;;;11.40;99.90;;;;;;4885466;29;20207;-76
2022/05/02 00:43:57;;;;;;;7.80;5.83;;;11.40;99.90;;;;;;4885295;29;20212;-76
2022/05/02 00:46:24;;;;;;;7.43;5.43;;;11.40;99.90;;;;;;4885245;29;20650;-76
2022/05/02 00:48:50;;;;;;;7.00;5.40;;;11.40;99.90;;;;;;4900966;29;20609;-76
2022/05/02 00:51:17;;;;;;;7.37;6.13;;;11.40;99.90;;;;;;4901053;29;20185;-76
2022/05/02 00:53:45;;;;;;;6.80;5.43;;;11.40;99.90;;;;;;4885187;29;20209;-76
2022/05/02 00:56:11;;;;;;;7.57;5.40;;;11.40;99.90;;;;;;4900785;29;20226;-76
2022/05/02 00:58:37;;;;;;;7.27;6.13;;;11.40;99.90;;;;;;4885443;29;20182;-76
2022/05/02 01:01:04;;;;;;;7.97;5.67;;;11.30;99.90;;;;;;4900676;29;20186;-76
2022/05/02 01:03:30;;;;;;;7.60;6.13;;;11.30;99.90;;;;;;4900743;29;20205;-76
2022/05/02 01:08:40;;;;;;;8.60;5.60;;;11.30;99.90;;;;;;4903587;29;20218;-76
2022/05/02 01:11:05;;;;;;;7.87;5.70;;;11.20;99.90;;;;;;4885237;29;20187;-76
2022/05/02 01:13:38;;;;;;;8.40;5.77;;;11.20;99.90;;;;;;4884567;29;20583;-76
2022/05/02 01:16:16;;;;;;;6.17;5.57;;;11.10;99.90;;;;;;4900453;29;20186;-76
2022/05/02 01:18:43;;;;;;;7.17;5.83;;;11.20;99.90;;;;;;4884917;29;20185;-76
2022/05/02 01:21:11;;;;;;;6.23;5.27;;;11.10;99.90;;;;;;4917361;29;20166;-76
2022/05/02 01:23:37;;;;;;;7.70;5.47;;;11.10;99.90;;;;;;4900015;29;20201;-76
2022/05/02 01:26:03;;;;;;;7.10;5.40;;;11.10;99.90;;;;;;4885102;29;20532;-76
2022/05/02 01:28:28;;;;;;;8.77;5.63;;;11.10;99.90;;;;;;4883962;29;20234;-76
2022/05/02 01:30:55;;;;;;;8.70;6.03;;;11.10;99.90;;;;;;4869349;29;20190;-76
2022/05/02 01:33:21;;;;;;;7.07;5.70;;;11.00;99.90;;;;;;4899870;29;20304;-76
2022/05/02 01:35:46;;;;;;;7.03;5.57;;;11.00;99.90;;;;;;4869133;29;20645;-76
2022/05/02 01:38:13;;;;;;;6.20;5.50;;;11.10;99.90;;;;;;4884524;29;20182;-76
2022/05/02 01:40:38;;;;;;;6.33;5.00;;;11.10;99.90;;;;;;4884188;29;20174;-76
2022/05/02 01:43:04;;;;;;;5.87;4.90;;;11.10;99.90;;;;;;4884391;29;20252;-76
2022/05/02 01:45:30;;;;;;;6.60;5.57;;;11.10;99.90;;;;;;4900020;29;20180;-76
2022/05/02 01:47:55;;;;;;;7.77;5.90;;;11.10;99.90;;;;;;4868427;29;20575;-76
2022/05/02 01:50:21;;;;;;;8.43;5.60;;;11.10;99.90;;;;;;4890814;29;20207;-76
2022/05/02 01:52:47;;;;;;;6.27;5.53;;;11.10;99.90;;;;;;4882471;29;20705;-76
2022/05/02 01:55:12;;;;;;;7.67;5.27;;;11.00;99.90;;;;;;4868749;29;20273;-76
2022/05/02 01:57:38;;;;;;;7.53;5.60;;;11.00;99.90;;;;;;4868613;29;20183;-76
2022/05/02 02:00:04;;;;;;;6.10;5.13;;;10.90;99.90;;;;;;4868724;29;20201;-76
2022/05/02 02:02:29;;;;;;;8.00;5.53;;;10.90;99.90;;;;;;4883867;29;20269;-76
2022/05/02 02:07:39;;;;;;;6.80;5.13;;;10.80;99.90;;;;;;4916561;29;20232;-76
2022/05/02 02:10:05;;;;;;;7.50;5.67;;;10.60;99.90;;;;;;4868540;29;20301;-76
2022/05/02 02:12:31;;;;;;;6.93;5.93;;;10.60;99.90;;;;;;4883780;29;20196;-76
2022/05/02 02:14:57;;;;;;;7.17;5.57;;;10.60;99.90;;;;;;4899471;29;20202;-76
2022/05/02 02:17:22;;;;;;;7.87;6.13;;;10.60;99.90;;;;;;4868486;29;20229;-76
2022/05/02 02:19:48;;;;;;;7.87;5.50;;;10.60;99.90;;;;;;4868359;29;20544;-76
2022/05/02 02:22:16;;;;;;;7.40;5.93;;;10.60;99.90;;;;;;4868123;29;20246;-76
2022/05/02 02:24:44;;;;;;;6.40;5.57;;;10.60;99.90;;;;;;4884662;29;20210;-76
2022/05/02 02:27:10;;;;;;;7.17;6.03;;;10.50;99.90;;;;;;4916382;29;20185;-76
2022/05/02 02:29:35;;;;;;;6.60;5.70;;;10.50;99.90;;;;;;4883780;29;20199;-76
2022/05/02 02:32:01;;;;;;;7.60;5.03;;;10.40;99.90;;;;;;4883574;29;20182;-76
2022/05/02 02:34:26;;;;;;;8.13;5.87;;;10.40;99.90;;;;;;4867925;29;20701;-76
2022/05/02 02:36:52;;;;;;;8.53;6.70;;;10.30;99.90;;;;;;4883978;29;20186;-76
2022/05/02 02:39:17;;;;;;;7.50;5.63;;;10.30;99.90;;;;;;4866994;29;20189;-76
2022/05/02 02:41:43;;;;;;;6.93;6.00;;;10.30;99.90;;;;;;4868004;29;20178;-76
2022/05/02 02:44:09;;;;;;;8.07;6.40;;;10.20;99.90;;;;;;4868010;29;20233;-76
2022/05/02 02:46:34;;;;;;;7.37;6.00;;;10.20;99.90;;;;;;4883468;29;20558;-76
2022/05/02 02:49:00;;;;;;;9.40;5.63;;;10.10;99.90;;;;;;4883311;29;20236;-76
2022/05/02 02:51:25;;;;;;;6.53;5.47;;;10.00;99.90;;;;;;4883640;29;20556;-76
2022/05/02 02:53:51;;;;;;;8.13;5.80;;;10.00;99.90;;;;;;4867982;29;20215;-76
2022/05/02 02:56:17;;;;;;;11.17;6.47;;;10.10;99.90;;;;;;4868370;29;20609;-76
2022/05/02 02:58:43;;;;;;;7.80;5.67;;;10.00;99.90;;;;;;4899016;29;20216;-76
2022/05/02 03:01:09;;;;;;;7.00;5.60;;;10.00;99.90;;;;;;4883460;29;20272;-76
2022/05/02 03:03:34;;;;;;;8.23;5.73;;;10.00;99.90;;;;;;4883208;29;20728;-76
2022/05/02 03:06:03;;;;;;;7.77;6.20;;;10.00;99.90;;;;;;4899310;29;20206;-76
2022/05/02 03:08:39;;;;;;;9.73;5.80;;;10.00;99.90;;;;;;4898875;29;20243;-76
2022/05/02 03:11:05;;;;;;;9.23;6.20;;;10.00;99.90;;;;;;4884588;29;20173;-76
2022/05/02 03:13:31;;;;;;;6.60;5.43;;;10.00;99.90;;;;;;4898422;29;20206;-76
2022/05/02 03:15:57;;;;;;;8.87;5.70;;;10.00;99.90;;;;;;4883163;29;20679;-76
2022/05/02 03:18:23;;;;;;;7.57;5.50;;;9.90;99.90;;;;;;4883173;29;20204;-76
2022/05/02 03:20:48;;;;;;;8.80;5.93;;;9.90;99.90;;;;;;4883185;29;20183;-76
2022/05/02 03:23:14;;;;;;;8.43;6.07;;;9.90;99.90;;;;;;4882965;29;20200;-76
2022/05/02 03:25:40;;;;;;;6.80;5.53;;;9.80;99.90;;;;;;4898852;29;20177;-76
2022/05/02 03:28:06;;;;;;;8.53;6.00;;;9.80;99.90;;;;;;4898738;29;20187;-76
2022/05/02 03:30:31;;;;;;;6.60;5.57;;;9.80;99.90;;;;;;4867912;29;20279;-76
2022/05/02 03:32:57;;;;;;;8.97;6.00;;;9.80;99.90;;;;;;4898241;29;20270;-76
2022/05/02 03:35:23;;;;;;;8.73;5.70;;;9.70;99.90;;;;;;4890216;23;20240;-76
2022/05/02 03:37:48;;;;;;;9.10;6.07;;;9.70;99.90;;;;;;4898583;29;20182;-76
2022/05/02 03:40:14;;;;;;;6.67;5.93;;;9.70;99.90;;;;;;4882876;29;20186;-76
2022/05/02 03:42:39;;;;;;;6.73;5.67;;;9.80;99.90;;;;;;4867387;29;20186;-76
2022/05/02 03:45:06;;;;;;;6.47;5.80;;;9.80;99.90;;;;;;4867545;29;20226;-76
2022/05/02 03:47:32;;;;;;;8.60;6.00;;;9.80;99.90;;;;;;4882908;29;20180;-76
2022/05/02 03:49:58;;;;;;;7.83;6.27;;;9.70;99.90;;;;;;4898733;29;20211;-76
2022/05/02 03:52:23;;;;;;;7.37;5.43;;;9.70;99.90;;;;;;4886147;29;20177;-76
2022/05/02 03:54:49;;;;;;;7.97;5.93;;;9.70;99.90;;;;;;4901885;29;20289;-76
2022/05/02 03:57:15;;;;;;;8.33;5.87;;;9.80;99.90;;;;;;4886321;29;20269;-76
2022/05/02 03:59:41;;;;;;;8.77;5.83;;;9.80;99.90;;;;;;4870759;29;20181;-76
2022/05/02 04:02:06;;;;;;;7.47;5.90;;;9.80;99.90;;;;;;4885969;29;20195;-76
2022/05/02 04:04:32;;;;;;;9.00;6.60;;;9.80;99.90;;;;;;4901710;29;20268;-76
2022/05/02 04:06:57;;;;;;;7.70;5.83;;;9.80;99.90;;;;;;4886283;29;20183;-76
2022/05/02 04:09:23;;;;;;;8.37;5.57;;;9.90;99.90;;;;;;4886094;29;20209;-76
2022/05/02 04:11:49;;;;;;;7.63;5.90;;;9.80;99.90;;;;;;4901503;29;20181;-76
2022/05/02 04:14:14;;;;;;;8.37;5.97;;;9.80;99.90;;;;;;4870509;29;20199;-76
2022/05/02 04:16:40;;;;;;;9.77;6.03;;;9.80;99.90;;;;;;4885947;29;20276;-76
2022/05/02 04:19:06;;;;;;;8.10;5.80;;;9.80;99.90;;;;;;4885922;29;20270;-77
2022/05/02 04:21:31;;;;;;;7.30;5.87;;;9.90;99.90;;;;;;4901531;29;20275;-77
2022/05/02 04:23:57;;;;;;;8.13;5.73;;;9.90;99.90;;;;;;4870367;29;20244;-77
2022/05/02 04:26:23;;;;;;;7.57;5.67;;;9.90;99.90;;;;;;4885928;29;20185;-76
2022/05/02 04:28:49;;;;;;;6.90;6.20;;;9.90;99.90;;;;;;4885697;29;20255;-76
2022/05/02 04:31:15;;;;;;;7.40;5.73;;;9.90;99.90;;;;;;4885567;29;20182;-76
2022/05/02 04:33:40;;;;;;;6.87;5.70;;;9.90;99.90;;;;;;4900949;29;20226;-76
2022/05/02 04:36:07;;;;;;;8.30;5.47;;;9.80;99.90;;;;;;4885736;29;20284;-76
2022/05/02 04:38:33;;;;;;;8.53;5.80;;;9.90;99.90;;;;;;4901209;29;20215;-76
2022/05/02 04:40:58;;;;;;;7.70;6.23;;;9.90;99.90;;;;;;4901197;29;20200;-76
2022/05/02 04:43:25;;;;;;;7.27;6.07;;;9.90;99.90;;;;;;4869987;29;20178;-76
2022/05/02 04:45:51;;;;;;;7.70;5.47;;;10.00;99.90;;;;;;4900988;29;20179;-76
2022/05/02 04:48:16;;;;;;;6.83;5.63;;;9.90;99.90;;;;;;4870007;29;20183;-76
2022/05/02 04:50:42;;;;;;;8.00;5.80;;;9.90;99.90;;;;;;4885151;29;20215;-76
2022/05/02 04:53:08;;;;;;;9.20;5.30;;;9.90;99.90;;;;;;4885229;29;20216;-76
2022/05/02 04:55:33;;;;;;;8.17;5.60;;;9.90;99.90;;;;;;4869758;29;20199;-76
2022/05/02 04:57:59;;;;;;;6.97;5.47;;;9.90;99.90;;;;;;4885244;29;20181;-76
2022/05/02 05:00:25;;;;;;;7.73;5.57;;;9.90;99.90;;;;;;4869815;29;20203;-76
2022/05/02 05:02:51;;;;;;;8.03;5.60;;;9.90;99.90;;;;;;4868861;29;20216;-76
2022/05/02 05:05:16;;;;;;;7.47;5.37;;;9.90;99.90;;;;;;4869775;29;20201;-77
2022/05/02 05:07:43;;;;;;;7.43;5.47;;;9.90;99.90;;;;;;4900866;29;20288;-77
2022/05/02 05:10:09;;;;;;;7.17;5.40;;;9.90;99.90;;;;;;4869757;29;20210;-77
2022/05/02 05:13:02;;;;;;;7.70;5.23;;;9.90;99.90;;;;;;4900629;29;20679;-76
2022/05/02 05:18:42;;;;;;;7.07;5.37;;;9.90;99.90;;;;;;4917430;29;20195;-76
2022/05/02 05:21:14;;;;;;;6.00;4.90;;;9.90;99.90;;;;;;4918050;29;20175;-77
2022/05/02 05:23:59;;;;;;;7.70;5.20;;;10.00;99.90;;;;;;4917321;29;20279;-77
2022/05/02 05:26:44;;;;;;;6.23;5.30;;;10.00;99.90;;;;;;4900741;29;20189;-77
2022/05/02 05:29:24;;;;;;;8.40;5.70;;;10.00;99.90;;;;;;4900680;29;20210;-76
2022/05/02 05:32:10;;;;;;;7.83;5.50;;;10.00;99.90;;;;;;4900427;29;20190;-77
2022/05/02 05:35:10;;;;;;;7.67;5.80;;;10.00;99.90;;;;;;4899633;29;20311;-77
2022/05/02 05:38:09;;;;;;;6.77;4.90;;;10.00;99.90;;;;;;4900539;29;20228;-76
2022/05/02 05:40:36;;;;;;;8.70;5.40;;;10.10;99.90;;;;;;4900060;29;20722;-76
2022/05/02 05:43:14;;;;;;;6.97;5.40;;;10.10;99.90;;;;;;4900210;29;20200;-76
2022/05/02 05:45:39;;;;;;;6.43;5.43;;;10.10;99.90;;;;;;4917123;29;20543;-76
2022/05/02 05:48:24;;;;;;;6.37;5.60;;;10.10;99.90;;;;;;4900128;29;20185;-76
2022/05/02 05:51:03;;;;;;;8.40;5.67;;;10.20;99.90;;;;;;4900243;29;20209;-76
2022/05/02 05:53:34;;;;;;;6.13;5.37;;;10.20;99.90;;;;;;4916794;29;20731;-76
2022/05/02 05:56:06;;;;;;;8.30;5.67;;;10.30;99.90;;;;;;4900028;29;20284;-76
2022/05/02 05:58:46;;;;;;;8.20;5.00;;;10.30;99.90;;;;;;4899950;29;20202;-76
2022/05/02 06:01:19;;;;;;;6.57;5.50;;;10.30;99.90;;;;;;4900001;29;20191;-76
2022/05/02 06:04:02;;;;;;;6.03;5.37;;;10.30;99.90;;;;;;4884733;29;20253;-76
2022/05/02 06:06:29;;;;;;;11.20;5.83;;;10.30;99.90;;;;;;4916661;29;20637;-77
2022/05/02 06:08:58;;;;;;;6.47;5.23;;;10.40;99.90;;;;;;4899617;29;20209;-75
2022/05/02 06:11:25;;;;;;;6.97;5.40;;;10.60;99.90;;;;;;4899399;29;20237;-75
2022/05/02 06:13:56;;;;;;;8.53;5.67;;;10.70;99.90;;;;;;4883819;29;20209;-76
2022/05/02 06:19:13;;;;;;;9.13;5.33;;;10.60;99.90;;;;;;4916670;29;20325;-76
2022/05/02 06:21:41;;;;;;;6.50;5.13;;;10.70;99.90;;;;;;4883797;29;20237;-76
2022/05/02 06:24:11;;;;;;;8.07;5.20;;;10.70;99.90;;;;;;4899133;29;20680;-76
2022/05/02 06:26:37;;;;;;;7.77;5.33;;;10.70;99.90;;;;;;4899391;29;20269;-76
2022/05/02 06:29:07;;;;;;;7.10;5.20;;;10.80;99.90;;;;;;4883957;29;20230;-76
2022/05/02 06:31:36;;;;;;;9.07;5.63;;;11.00;99.90;;;;;;4899880;29;20625;-75
2022/05/02 06:34:02;;;;;;;8.17;5.60;;;11.00;99.90;;;;;;4868328;29;20777;-76
2022/05/02 06:37:03;;;;;;;8.30;5.13;;;11.10;99.90;;;;;;4883907;29;20637;-76
2022/05/02 06:40:00;;;;;;;8.07;5.40;;;11.10;99.90;;;;;;4899315;29;20609;-76
2022/05/02 06:42:30;;;;;;;6.57;5.13;;;11.20;99.90;;;;;;4899125;29;20182;-75
2022/05/02 06:45:24;;;;;;;7.07;5.47;;;11.30;99.90;;;;;;4899387;29;20201;-76
2022/05/02 06:48:01;;;;;;;6.97;5.40;;;11.40;99.90;;;;;;4899201;29;20268;-76
2022/05/02 06:50:32;;;;;;;6.13;4.80;;;11.40;99.90;;;;;;4899291;29;20631;-77
2022/05/02 06:53:21;;;;;;;9.33;5.53;;;11.40;99.90;;;;;;4898955;29;20634;-76
2022/05/02 06:56:14;;;;;;;7.00;5.40;;;11.50;99.90;;;;;;4899521;29;20713;-76
2022/05/02 06:59:09;;;;;;;8.07;5.27;;;11.40;99.90;;;;;;4899313;29;20268;-76
2022/05/02 07:01:50;;;;;;;6.87;4.93;;;11.40;99.90;;;;;;4855782;29;20277;-77
2022/05/02 07:04:16;;;;;;;5.80;4.80;;;11.60;99.90;;;;;;4883905;29;20361;-75
2022/05/02 07:07:00;;;;;;;7.40;4.57;;;11.70;99.90;;;;;;4899096;29;20704;-75
2022/05/02 07:09:43;;;;;;;7.17;5.37;;;11.90;99.90;;;;;;4898943;29;20253;-76
2022/05/02 07:12:22;;;;;;;8.00;5.03;;;12.00;99.90;;;;;;4898826;29;20197;-76
2022/05/02 07:14:51;;;;;;;6.73;5.20;;;12.30;99.90;;;;;;4898998;29;20213;-75
2022/05/02 07:17:31;;;;;;;6.00;5.10;;;12.50;99.90;;;;;;4898884;29;20179;-76
2022/05/02 07:20:09;;;;;;;6.23;4.80;;;12.60;99.90;;;;;;4898892;29;20179;-75
2022/05/02 07:22:48;;;;;;;6.13;4.77;;;12.60;99.90;;;;;;4898727;29;20178;-75
2022/05/02 07:25:19;;;;;;;6.17;5.00;;;12.70;99.90;;;;;;4899145;29;20206;-75
2022/05/02 07:28:09;;;;;;;6.17;4.93;;;12.70;99.90;;;;;;4887781;29;20665;-75
2022/05/02 07:30:35;;;;;;;6.17;4.90;;;12.60;99.90;;;;;;4919505;29;20258;-75
2022/05/02 07:33:03;;;;;;;6.90;4.67;;;12.60;99.90;;;;;;4871358;29;20769;-75
2022/05/02 07:35:30;;;;;;;6.80;4.47;;;12.70;99.90;;;;;;4887149;29;20633;-75
2022/05/02 07:37:57;;;;;;;6.90;4.90;;;12.80;99.90;;;;;;4902735;29;20174;-75
2022/05/02 07:40:24;;;;;;;6.73;5.10;;;12.90;99.90;;;;;;4886819;29;20186;-75
2022/05/02 07:42:52;;;;;;;6.50;5.20;;;13.00;99.90;;;;;;4902057;29;20192;-76
2022/05/02 07:45:24;;;;;;;5.13;4.53;;;13.20;99.90;;;;;;4886974;29;20674;-75
2022/05/02 07:47:52;;;;;;;8.97;5.10;;;13.30;99.90;;;;;;4902409;29;20185;-75
2022/05/02 07:50:20;;;;;;;6.50;4.60;;;13.40;99.90;;;;;;4902074;29;20703;-76
2022/05/02 07:52:47;;;;;;;7.40;4.63;;;13.40;99.90;;;;;;4886130;29;20185;-76
2022/05/02 07:55:14;;;;;;;5.83;5.00;;;13.40;99.90;;;;;;4901932;29;20195;-76
2022/05/02 07:57:42;;;;;;;6.47;4.80;;;13.50;99.90;;;;;;4902049;29;20186;-75
2022/05/02 08:00:10;;;;;;;6.67;4.93;;;13.70;99.90;;;;;;4902098;29;20206;-76
2022/05/02 08:02:37;;;;;;;5.97;4.93;;;14.10;99.90;;;;;;4918794;29;20214;-75
2022/05/02 08:05:05;;;;;;;6.10;4.53;;;14.40;99.90;;;;;;4901811;29;20213;-76
2022/05/02 08:07:44;;;;;;;6.80;4.40;;;14.50;99.90;;;;;;4886899;29;20179;-75
2022/05/02 08:10:55;;;;;;;5.07;4.43;;;14.50;99.90;;;;;;4886262;29;20217;-76
2022/05/02 08:13:29;;;;;;;6.40;4.23;;;14.30;99.90;;;;;;4901587;29;20209;-76
2022/05/02 08:16:01;;;;;;;5.20;4.67;;;14.20;99.90;;;;;;4901832;29;20270;-75
2022/05/02 08:19:07;;;;;;;5.33;4.40;;;14.10;99.90;;;;;;4901610;29;20185;-75
2022/05/02 08:21:47;;;;;;;6.07;4.60;;;14.00;99.90;;;;;;4865957;29;20642;-75
2022/05/02 08:27:51;;;;;;;6.57;4.47;;;14.10;99.90;;;;;;4918774;29;20205;-75
2022/05/02 08:30:23;;;;;;;5.00;4.50;;;14.20;99.90;;;;;;4901457;29;20237;-76
2022/05/02 08:33:00;;;;;;;7.23;4.63;;;14.50;99.90;;;;;;4885623;29;20269;-76
2022/05/02 08:36:10;;;;;;;5.93;4.80;;;14.70;99.90;;;;;;4901353;29;20308;-75
2022/05/02 08:39:01;;;;;;;5.90;4.80;;;15.00;99.90;;;;;;4901502;29;20178;-75
2022/05/02 08:41:33;;;;;;;6.47;4.50;;;15.50;99.90;;;;;;4886562;29;20193;-75
2022/05/02 08:44:37;;;;;;;5.53;4.50;;;15.90;99.90;;;;;;4901161;29;20198;-76
2022/05/02 08:47:20;;;;;;;6.03;4.53;;;16.20;99.90;;;;;;4901150;29;20193;-75
2022/05/02 08:49:58;;;;;;;5.90;4.37;;;16.40;99.90;;;;;;4901016;29;20198;-75
2022/05/02 08:53:05;;;;;;;5.63;4.50;;;16.30;99.90;;;;;;4917857;29;20596;-75
2022/05/02 08:55:56;;;;;;;4.70;4.13;;;16.20;99.90;;;;;;4896316;29;20210;-75
2022/05/02 08:58:43;;;;;;;4.90;4.40;;;16.00;99.90;;;;;;4900960;29;20184;-75
2022/05/02 09:01:29;;;;;;;7.00;4.10;;;16.00;99.90;;;;;;4901299;29;20189;-75
2022/05/02 09:04:28;;;;;;;7.23;4.30;;;16.00;99.90;;;;;;4900732;29;20198;-75
2022/05/02 09:07:10;;;;;;;4.70;4.27;;;15.90;99.90;;;;;;4900879;29;20646;-75
2022/05/02 09:10:04;;;;;;;5.10;4.27;;;15.90;99.90;;;;;;4901073;29;20218;-75
2022/05/02 09:13:08;;;;;;;6.23;4.90;;;15.90;99.90;;;;;;4900618;29;20175;-75
2022/05/02 09:16:01;;;;;;;6.70;4.47;;;15.90;99.90;;;;;;4900834;29;20202;-75
2022/05/02 09:18:46;;;;;;;5.17;4.40;;;16.00;99.90;;;;;;4900623;29;20230;-75
2022/05/02 09:21:24;;;;;;;6.30;4.30;;;16.00;99.90;;;;;;4917435;29;20170;-76
2022/05/02 09:24:15;;;;;;;5.43;4.47;;;16.10;99.90;;;;;;4900267;29;20284;-75
2022/05/02 09:26:41;;;;;;;6.33;4.73;;;16.10;99.90;;;;;;4900773;29;20197;-76
2022/05/02 09:29:25;;;;;;;5.97;4.57;;;16.10;99.90;;;;;;4917219;29;20666;-75
2022/05/02 09:32:25;;;;;;;5.07;4.57;;;16.10;99.90;;;;;;4900334;29;20261;-75
2022/05/02 09:34:58;;;;;;;4.70;4.20;;;16.00;99.90;;;;;;4938649;23;20325;-75
2022/05/02 09:37:45;;;;;;;6.90;4.60;;;15.90;99.90;;;;;;4885128;29;20178;-75
2022/05/02 09:40:14;;;;;;;5.03;4.33;;;15.90;99.90;;;;;;4900385;29;20202;-75
2022/05/02 09:42:49;;;;;;;5.67;4.27;;;15.90;99.90;;;;;;4884979;29;20182;-75
2022/05/02 09:52:05;;;;;;;5.37;4.60;;;16.10;99.90;;;;;;4916973;29;20275;-76
2022/05/02 09:58:03;;;;;;;5.30;4.50;;;16.60;99.90;;;;;;4916937;29;20663;-75
2022/05/02 10:01:06;;;;;;;6.13;4.53;;;16.90;99.90;;;;;;4899811;29;20182;-75
2022/05/02 10:03:40;;;;;;;5.17;4.37;;;17.10;99.90;;;;;;4899649;29;20174;-75
2022/05/02 10:06:20;;;;;;;5.50;4.40;;;17.30;99.90;;;;;;4884778;29;20198;-75
2022/05/02 10:09:04;;;;;;;5.73;4.77;;;17.50;99.90;;;;;;4883934;29;20190;-75
2022/05/02 10:11:48;;;;;;;5.37;4.60;;;18.00;99.90;;;;;;4884042;29;20209;-76
2022/05/02 10:14:43;;;;;;;6.33;4.60;;;18.60;99.90;;;;;;4899718;29;20209;-76
2022/05/02 10:17:13;;;;;;;4.77;4.00;;;19.00;99.90;;;;;;4899426;29;20205;-76
2022/05/02 10:20:04;;;;;;;4.37;3.97;;;19.10;99.90;;;;;;4900470;29;20645;-77
2022/05/02 10:22:58;;;;;;;5.37;3.97;;;18.70;99.90;;;;;;4899373;29;20582;-77
2022/05/02 10:25:43;;;;;;;5.93;4.00;;;18.90;99.90;;;;;;4899298;29;20207;-76
2022/05/02 10:28:40;;;;;;;4.23;3.77;;;19.10;99.90;;;;;;4884013;29;20185;-77
2022/05/02 10:31:12;;;;;;;4.10;3.70;;;19.30;99.90;;;;;;4916260;29;20217;-76
2022/05/02 10:33:46;;;;;;;4.80;4.30;;;19.60;99.90;;;;;;4899644;29;20183;-75
2022/05/02 10:36:12;;;;;;;4.90;4.00;;;19.70;99.90;;;;;;4883617;29;20558;-76
2022/05/02 10:38:55;;;;;;;4.80;3.93;;;19.60;99.90;;;;;;4883519;29;20190;-76
2022/05/02 10:41:43;;;;;;;5.50;4.00;;;19.50;99.90;;;;;;4899218;29;20206;-75
2022/05/02 10:44:11;;;;;;;7.07;4.33;;;19.70;99.90;;;;;;4898839;29;20597;-76
2022/05/02 10:46:42;;;;;;;5.97;4.27;;;19.80;99.90;;;;;;4883879;29;20182;-76
2022/05/02 10:49:25;;;;;;;5.87;4.00;;;20.00;99.90;;;;;;4899057;29;20285;-76
2022/05/02 10:52:09;;;;;;;4.93;4.27;;;20.40;99.90;;;;;;4899217;29;20178;-76
2022/05/02 10:54:41;;;;;;;5.03;3.67;;;20.70;99.90;;;;;;4916107;29;20190;-75
2022/05/02 10:57:26;;;;;;;4.70;3.53;;;20.80;99.90;;;;;;4899043;29;20185;-76
2022/05/02 10:59:53;;;;;;;5.07;3.90;;;20.80;99.90;;;;;;4902435;29;20299;-75
2022/05/02 11:02:50;;;;;;;4.60;3.63;;;20.50;98.30;;;;;;4886892;29;20178;-75
2022/05/02 11:05:17;;;;;;;4.00;3.60;;;20.70;98.70;;;;;;4902736;29;20202;-75
2022/05/02 11:07:54;;;;;;;5.47;3.72;;;20.60;96.90;;;;;;4887450;29;20217;-76
2022/05/02 11:10:22;;;;;;;4.82;3.40;;;20.60;98.80;;;;;;4887085;29;20216;-75
2022/05/02 11:13:15;;;;;;;4.63;4.10;;;20.70;99.20;;;;;;4902708;29;20174;-76
2022/05/02 11:16:09;;;;;;;5.57;3.65;;;20.70;99.10;;;;;;4902594;29;20197;-76
2022/05/02 11:22:15;;;;;;;4.60;3.70;;;21.00;99.30;;;;;;4919474;29;20197;-76
2022/05/02 11:25:10;;;;;;;4.63;3.70;;;21.30;99.90;;;;;;4919435;29;20190;-76
2022/05/02 11:27:57;;;;;;;5.05;3.90;;;21.60;98.40;;;;;;4886589;29;20194;-76
2022/05/02 11:30:27;;;;;;;4.38;3.47;;;21.60;98.00;;;;;;4902451;29;20692;-75
2022/05/02 11:33:09;;;;;;;4.63;3.60;;;21.80;97.50;;;;;;4902546;29;20174;-76
2022/05/02 11:35:36;;;;;;;5.15;4.05;;;22.10;95.40;;;;;;4902269;29;20210;-75
2022/05/02 11:38:40;;;;;;;4.97;3.58;;;21.90;94.10;;;;;;4886695;29;20649;-76
2022/05/02 11:41:19;;;;;;;4.53;3.78;;;22.10;94.20;;;;;;4902524;29;20189;-76
2022/05/02 11:43:46;;;;;;;5.38;4.00;;;22.40;94.80;;;;;;4918995;29;20202;-76
2022/05/02 11:46:26;;;;;;;4.97;3.72;;;22.40;92.00;;;;;;4886862;29;20183;-76
2022/05/02 11:49:12;;;;;;;5.15;3.90;;;22.60;92.50;;;;;;4902069;29;20206;-76
2022/05/02 11:51:47;;;;;;;4.68;3.95;;;22.80;93.60;;;;;;4902047;29;20206;-76
2022/05/02 11:54:17;;;;;;;5.10;4.00;;;22.80;92.30;;;;;;4902082;29;20202;-76
2022/05/02 11:56:55;;;;;;;4.88;3.85;;;22.50;90.80;;;;;;4918964;29;20174;-76
2022/05/02 11:59:23;;;;;;;3.90;3.50;;;22.10;91.80;;;;;;4901926;29;20178;-76
2022/05/02 12:02:01;;;;;;;3.97;3.58;;;21.90;92.70;;;;;;4871036;29;20182;-76
2022/05/02 12:04:31;;;;;;;3.92;3.63;;;22.40;91.80;;;;;;4901922;29;20206;-76
2022/05/02 12:07:05;;;;;;;4.53;3.55;;;22.50;92.40;;;;;;4886807;29;20230;-75
2022/05/02 12:09:34;;;;;;;5.82;3.80;;;22.10;90.90;;;;;;4901661;29;20209;-76
2022/05/02 12:12:05;;;;;;;4.30;3.80;;;21.70;92.30;;;;;;4885922;29;20284;-76
2022/05/02 12:14:31;;;;;;;4.13;3.72;;;21.30;91.40;;;;;;4901771;29;20194;-76
2022/05/02 12:17:11;;;;;;;4.63;3.55;;;21.70;93.00;;;;;;4870690;29;20186;-76
2022/05/02 12:19:38;;;;;;;4.47;3.53;;;22.20;91.90;;;;;;4901909;29;20190;-76
2022/05/02 12:22:15;;;;;;;6.43;3.70;;;22.40;91.90;;;;;;4885673;29;20206;-76
2022/05/02 12:24:45;;;;;;;4.32;3.90;;;22.70;92.60;;;;;;4887278;29;20194;-76
2022/05/02 12:27:12;;;;;;;6.47;3.35;;;23.00;91.40;;;;;;4901700;29;20178;-76
2022/05/02 12:29:41;;;;;;;7.70;3.60;;;22.80;89.00;;;;;;4901350;29;20210;-76
2022/05/02 12:32:08;;;;;;;5.78;3.95;;;22.40;90.80;;;;;;4885868;29;20178;-77
2022/05/02 12:34:49;;;;;;;5.38;3.92;;;21.80;88.20;;;;;;4870276;29;20269;-76
2022/05/02 12:37:20;;;;;;;6.93;3.67;;;22.00;92.40;;;;;;4886307;29;20202;-76
2022/05/02 12:39:49;;;;;;;4.05;3.60;;;22.60;92.10;;;;;;4901173;29;20179;-76
2022/05/02 12:42:20;;;;;;;4.22;3.47;;;22.80;87.50;;;;;;4885633;29;20182;-76
2022/05/02 12:44:47;;;;;;;4.38;3.60;;;22.60;90.40;;;;;;4870237;29;20206;-76
2022/05/02 12:47:24;;;;;;;5.65;4.15;;;22.30;91.20;;;;;;4900946;29;20680;-76
2022/05/02 12:50:17;;;;;;;4.00;3.60;;;21.60;90.80;;;;;;4885661;29;20268;-76
2022/05/02 12:53:00;;;;;;;4.55;3.60;;;22.10;91.40;;;;;;4900955;29;20186;-76
2022/05/02 12:55:38;;;;;;;5.35;3.55;;;21.90;86.90;;;;;;4900902;29;20744;-76
2022/05/02 13:00:52;;;;;;;3.72;3.35;;;22.80;92.70;;;;;;4918088;29;20185;-76
2022/05/02 13:03:30;;;;;;;4.25;3.50;;;23.60;90.40;;;;;;4870122;29;20210;-76
2022/05/02 13:06:06;;;;;;;4.90;3.50;;;24.00;81.00;;;;;;4870840;29;20202;-76
2022/05/02 13:08:35;;;;;;;4.47;3.90;;;24.30;80.00;;;;;;4917617;29;20194;-76
2022/05/02 13:11:11;;;;;;;5.75;3.55;;;24.30;76.60;;;;;;4885340;29;20218;-76
2022/05/02 13:13:42;;;;;;;4.65;3.80;;;24.30;76.30;;;;;;4885352;29;20193;-76
2022/05/02 13:16:29;;;;;;;4.55;3.85;;;24.20;77.20;;;;;;4884978;29;20266;-76
2022/05/02 13:18:58;;;;;;;4.72;4.22;;;23.00;76.60;;;;;;4900527;29;20170;-76
2022/05/02 13:21:24;;;;;;;4.70;3.63;;;22.30;81.90;;;;;;4885145;29;20606;-76
2022/05/02 13:24:10;;;;;;;4.18;3.60;;;21.90;83.30;;;;;;4915751;29;20637;-76
2022/05/02 13:27:11;;;;;;;3.97;3.40;;;21.50;81.40;;;;;;4867883;29;20760;-76
2022/05/02 13:30:04;;;;;;;5.07;3.50;;;21.40;86.10;;;;;;4842485;29;20735;-76
2022/05/02 13:32:42;;;;;;;4.07;3.67;;;21.00;86.60;;;;;;4898279;29;20187;-76
2022/05/02 13:35:11;;;;;;;5.65;3.40;;;20.80;82.70;;;;;;4881934;29;20218;-76
2022/05/02 13:38:01;;;;;;;5.32;4.00;;;20.60;85.90;;;;;;4898677;29;20259;-76
2022/05/02 13:40:50;;;;;;;3.45;3.15;;;20.60;87.90;;;;;;4881882;29;20186;-76
2022/05/02 13:43:25;;;;;;;3.75;3.42;;;20.60;87.00;;;;;;4898558;29;20214;-76
2022/05/02 13:46:00;;;;;;;4.75;3.60;;;20.70;88.70;;;;;;4882066;29;20249;-76
2022/05/02 13:49:13;;;;;;;5.38;3.72;;;20.70;89.90;;;;;;4898493;29;20681;-76
2022/05/02 13:51:52;;;;;;;4.20;3.60;;;20.50;85.90;;;;;;4881637;29;20649;-76